createdAt,value
2022-12-29T00:00:00.941Z,64.6
2022-12-29T00:05:01.037Z,64.0
2022-12-29T00:10:06.367Z,63.0
2022-12-29T00:15:01.067Z,60.9
2022-12-29T00:20:01.981Z,59.5
2022-12-29T00:25:01.256Z,61.1
2022-12-29T00:30:01.046Z,60.1
2022-12-29T00:35:06.016Z,60.2
2022-12-29T00:40:01.325Z,60.2
2022-12-29T00:45:01.063Z,59.8
2022-12-29T00:50:02.006Z,55.7
2022-12-29T00:55:01.066Z,57.1
2022-12-29T01:00:01.037Z,58.1
2022-12-29T01:05:02.027Z,60.9
2022-12-29T01:10:01.002Z,65.7
2022-12-29T01:15:01.090Z,66.6
2022-12-29T01:20:02.170Z,65.7
2022-12-29T01:25:01.576Z,64.8
2022-12-29T01:30:00.965Z,61.5
2022-12-29T01:35:01.313Z,56.1
2022-12-29T01:40:01.034Z,54.9
2022-12-29T01:45:06.089Z,53.4
2022-12-29T01:50:00.934Z,52.7
2022-12-29T01:55:01.089Z,53.8
2022-12-29T02:00:00.962Z,53.2
2022-12-29T02:05:05.116Z,54.4
2022-12-29T02:10:00.936Z,57.5
2022-12-29T02:15:02.028Z,57.3
2022-12-29T02:20:01.379Z,56.4
2022-12-29T02:40:01.835Z,53.4
2022-12-29T02:45:05.066Z,56.2
2022-12-29T02:50:01.590Z,56.7
2022-12-29T02:55:01.800Z,58.4
2022-12-29T03:00:01.944Z,57.5
2022-12-29T03:05:02.678Z,61.9
2022-12-29T03:10:01.607Z,61.3
2022-12-29T03:30:01.534Z,58.8
2022-12-29T03:35:01.460Z,58.9
2022-12-29T03:45:01.362Z,59.3
2022-12-29T03:50:01.420Z,68.7
2022-12-29T03:55:01.452Z,72.3
2022-12-29T04:05:01.488Z,77.7
2022-12-29T04:10:01.459Z,81.2
2022-12-29T04:15:06.484Z,84.3
2022-12-29T04:20:01.365Z,80.0
2022-12-29T04:25:01.458Z,78.8
2022-12-29T04:30:01.799Z,77.9
2022-12-29T04:35:01.820Z,90.6
2022-12-29T04:40:01.384Z,92.6
2022-12-29T04:45:01.804Z,95.0
2022-12-29T04:50:01.479Z,98.0
2022-12-29T04:55:01.442Z,101.3
2022-12-29T05:05:01.409Z,93.5
2022-12-29T05:10:01.419Z,97.3
2022-12-29T05:15:01.390Z,95.3
2022-12-29T05:20:06.346Z,91.0
2022-12-29T05:25:01.484Z,87.9
2022-12-29T05:30:01.359Z,84.3
2022-12-29T05:35:01.847Z,83.0
2022-12-29T05:40:01.386Z,83.9
2022-12-29T05:45:01.470Z,100.7
2022-12-29T05:50:01.439Z,99.9
2022-12-29T06:00:01.564Z,99.4
2022-12-29T06:05:01.649Z,104.0
2022-12-29T06:10:06.444Z,94.7
2022-12-29T06:15:01.519Z,93.9
2022-12-29T06:20:01.347Z,90.0
2022-12-29T06:25:05.628Z,85.9
2022-12-29T06:30:01.501Z,100.2
2022-12-29T06:35:01.467Z,91.5
2022-12-29T06:40:01.332Z,91.3
2022-12-29T06:50:01.427Z,96.8
2022-12-29T06:55:01.403Z,101.6
2022-12-29T07:00:01.462Z,85.0
2022-12-29T07:05:01.494Z,89.4
2022-12-29T07:10:01.462Z,98.0
2022-12-29T07:15:01.507Z,96.8
2022-12-29T07:20:01.433Z,94.2
2022-12-29T07:25:01.800Z,91.7
2022-12-29T07:35:01.505Z,89.3
2022-12-29T07:40:01.343Z,81.5
2022-12-29T07:45:01.400Z,79.8
2022-12-29T07:50:01.701Z,79.0
2022-12-29T07:55:02.598Z,77.0
2022-12-29T08:00:07.512Z,76.0
2022-12-29T08:15:01.476Z,78.0
2022-12-29T08:20:01.330Z,78.0
2022-12-29T08:25:06.522Z,82.1
2022-12-29T08:30:01.338Z,80.6
2022-12-29T08:35:01.414Z,78.2
2022-12-29T08:40:01.420Z,74.8
2022-12-29T08:50:01.429Z,70.8
2022-12-29T08:55:01.501Z,74.8
2022-12-29T09:05:01.603Z,83.0
2022-12-29T09:10:01.660Z,115.8
2022-12-29T09:15:01.521Z,121.9
2022-12-29T09:20:01.377Z,134.8
2022-12-29T09:25:01.773Z,148.6
2022-12-29T09:30:01.374Z,157.0
2022-12-29T09:35:01.744Z,131.2
2022-12-29T09:40:01.376Z,136.2
2022-12-29T09:45:01.494Z,130.0
2022-12-29T09:50:01.489Z,120.7
2022-12-29T09:55:12.101Z,111.3
2022-12-29T10:00:01.336Z,111.8
2022-12-29T10:20:01.582Z,140.8
2022-12-29T10:40:02.073Z,116.0
2022-12-29T11:00:01.625Z,104.2
2022-12-29T11:05:01.569Z,167.3
2022-12-29T11:10:06.410Z,153.4
2022-12-29T11:15:01.623Z,148.0
2022-12-29T11:20:01.491Z,146.0
2022-12-29T11:40:02.153Z,181.0
2022-12-29T11:45:10.621Z,170.8
2022-12-29T11:50:06.055Z,236.3
2022-12-29T11:55:01.128Z,206.5
2022-12-29T12:00:02.145Z,188.7
2022-12-29T12:05:01.065Z,176.8
2022-12-29T12:10:08.188Z,170.5
2022-12-29T12:15:01.218Z,120.1
2022-12-29T12:20:01.083Z,121.8
2022-12-29T12:40:01.982Z,80.4
2022-12-29T13:00:01.618Z,75.8
2022-12-29T13:05:01.322Z,71.0
2022-12-29T13:20:01.923Z,87.0
2022-12-29T13:25:01.787Z,96.1
2022-12-29T13:40:07.666Z,127.6
2022-12-29T13:45:01.935Z,142.8
2022-12-29T13:50:01.260Z,147.7
2022-12-29T13:55:02.456Z,140.0
2022-12-29T14:10:01.984Z,147.0
2022-12-29T14:20:01.794Z,133.7
2022-12-29T14:25:01.963Z,120.0
2022-12-29T14:40:01.591Z,83.4
2022-12-29T14:45:01.596Z,84.9
2022-12-29T14:50:06.263Z,84.8
2022-12-29T14:55:01.846Z,84.7
2022-12-29T15:10:03.064Z,102.4
2022-12-29T15:20:01.774Z,97.7
2022-12-29T15:45:11.791Z,79.4
2022-12-29T15:50:01.332Z,91.9
2022-12-29T16:10:07.156Z,111.6
2022-12-29T16:30:01.741Z,296.6
2022-12-29T16:35:01.643Z,308.2
2022-12-29T16:40:02.553Z,248.9
2022-12-29T17:00:01.273Z,121.2
2022-12-29T17:05:06.079Z,128.5
2022-12-29T17:10:01.605Z,180.9
2022-12-29T17:15:06.305Z,180.4
2022-12-29T17:20:00.982Z,174.8
2022-12-29T17:25:01.094Z,195.6
2022-12-29T17:30:01.021Z,193.5
2022-12-29T17:35:01.736Z,169.4
2022-12-29T17:40:00.969Z,179.2
2022-12-29T17:45:02.230Z,201.0
2022-12-29T17:50:01.264Z,195.0
2022-12-29T17:55:01.148Z,203.2
2022-12-29T18:00:00.981Z,214.6
2022-12-29T18:05:01.042Z,221.4
2022-12-29T18:10:00.992Z,193.2
2022-12-29T18:15:06.104Z,177.6
2022-12-29T18:20:00.973Z,176.2
2022-12-29T18:25:01.253Z,172.2
2022-12-29T18:30:00.981Z,157.1
2022-12-29T18:35:01.081Z,187.5
2022-12-29T18:40:01.211Z,221.6
2022-12-29T18:45:01.303Z,261.0
2022-12-29T18:50:01.365Z,263.6
2022-12-29T18:55:01.214Z,254.6
2022-12-29T19:00:00.948Z,232.4
2022-12-29T19:05:09.029Z,224.6
2022-12-29T19:10:01.343Z,199.0
2022-12-29T19:15:01.293Z,216.3
2022-12-29T19:20:00.939Z,248.4
2022-12-29T19:25:01.138Z,274.8
2022-12-29T19:30:01.067Z,251.7
2022-12-29T19:35:01.162Z,235.0
2022-12-29T19:40:00.997Z,217.6
2022-12-29T19:45:01.149Z,193.8
2022-12-29T19:50:00.987Z,217.2
2022-12-29T19:55:01.171Z,247.1
2022-12-29T20:00:00.932Z,268.9
2022-12-29T20:05:00.997Z,293.6
2022-12-29T20:10:05.980Z,293.7
2022-12-29T20:15:02.047Z,257.6
2022-12-29T20:20:00.956Z,238.5
2022-12-29T20:30:06.616Z,232.2
2022-12-29T20:35:01.012Z,298.4
2022-12-29T20:40:01.008Z,285.8
2022-12-29T20:45:01.162Z,294.4
2022-12-29T20:50:01.141Z,295.8
2022-12-29T20:55:01.195Z,299.1
2022-12-29T21:00:00.976Z,286.0
2022-12-29T21:30:06.971Z,325.0
2022-12-29T21:35:01.755Z,321.7
2022-12-29T21:40:01.739Z,328.0
2022-12-29T21:45:02.797Z,306.4
2022-12-29T21:50:01.990Z,306.9
2022-12-29T21:55:01.893Z,310.6
2022-12-29T22:00:02.755Z,330.8
2022-12-29T22:05:01.752Z,348.4
2022-12-29T22:10:01.821Z,359.5
2022-12-29T22:15:01.751Z,355.0
2022-12-29T22:20:01.655Z,367.9
2022-12-29T22:25:01.716Z,370.8
2022-12-29T22:30:01.720Z,388.2
2022-12-29T22:35:08.621Z,421.8
2022-12-29T22:40:01.648Z,433.1
2022-12-29T22:45:01.770Z,406.4
2022-12-29T22:55:07.370Z,304.8
2022-12-29T23:00:01.660Z,263.1
2022-12-29T23:05:07.307Z,258.1
2022-12-29T23:10:01.690Z,251.9
2022-12-29T23:15:01.946Z,252.1
2022-12-29T23:20:05.872Z,254.8
2022-12-29T23:25:01.816Z,248.4
2022-12-29T23:30:01.667Z,236.7
2022-12-29T23:35:01.737Z,226.5
2022-12-29T23:40:01.705Z,234.3
2022-12-29T23:45:01.767Z,226.1
2022-12-29T23:50:01.830Z,238.4
2022-12-29T23:55:01.890Z,246.5
